sensor_id;sensor_type;location;lat;lon;timestamp;P1;durP1;ratioP1;P2;durP2;ratioP2
15905;SDS011;8051;50.820;4.884;2023-10-08T00:02:24;30.30;;;28.50;;
15905;SDS011;8051;50.820;4.884;2023-10-08T00:04:51;29.17;;;27.07;;
15905;SDS011;8051;50.820;4.884;2023-10-08T00:07:20;29.77;;;27.60;;
15905;SDS011;8051;50.820;4.884;2023-10-08T00:09:49;28.77;;;27.17;;
15905;SDS011;8051;50.820;4.884;2023-10-08T00:12:19;29.77;;;28.03;;
15905;SDS011;8051;50.820;4.884;2023-10-08T00:14:47;29.87;;;28.07;;
15905;SDS011;8051;50.820;4.884;2023-10-08T00:17:18;28.87;;;27.17;;
15905;SDS011;8051;50.820;4.884;2023-10-08T00:19:46;28.67;;;26.97;;
15905;SDS011;8051;50.820;4.884;2023-10-08T00:22:17;30.13;;;28.03;;
15905;SDS011;8051;50.820;4.884;2023-10-08T00:24:45;31.33;;;29.37;;
15905;SDS011;8051;50.820;4.884;2023-10-08T00:27:15;31.23;;;29.20;;
15905;SDS011;8051;50.820;4.884;2023-10-08T00:29:44;31.20;;;29.17;;
15905;SDS011;8051;50.820;4.884;2023-10-08T00:32:12;31.30;;;29.30;;
15905;SDS011;8051;50.820;4.884;2023-10-08T00:34:40;32.50;;;30.60;;
15905;SDS011;8051;50.820;4.884;2023-10-08T00:37:09;32.23;;;30.07;;
15905;SDS011;8051;50.820;4.884;2023-10-08T00:39:39;33.10;;;30.60;;
15905;SDS011;8051;50.820;4.884;2023-10-08T00:42:07;31.63;;;29.73;;
15905;SDS011;8051;50.820;4.884;2023-10-08T00:44:35;32.43;;;30.50;;
15905;SDS011;8051;50.820;4.884;2023-10-08T00:47:14;32.17;;;30.23;;
15905;SDS011;8051;50.820;4.884;2023-10-08T00:49:51;33.43;;;31.53;;
15905;SDS011;8051;50.820;4.884;2023-10-08T00:52:29;32.40;;;30.30;;
15905;SDS011;8051;50.820;4.884;2023-10-08T00:55:04;31.23;;;29.23;;
15905;SDS011;8051;50.820;4.884;2023-10-08T00:57:40;32.20;;;29.90;;
15905;SDS011;8051;50.820;4.884;2023-10-08T01:00:13;31.27;;;29.50;;
15905;SDS011;8051;50.820;4.884;2023-10-08T01:02:48;31.87;;;30.03;;
15905;SDS011;8051;50.820;4.884;2023-10-08T01:05:25;32.83;;;30.93;;
15905;SDS011;8051;50.820;4.884;2023-10-08T01:08:07;34.57;;;32.33;;
15905;SDS011;8051;50.820;4.884;2023-10-08T01:10:39;34.83;;;32.50;;
15905;SDS011;8051;50.820;4.884;2023-10-08T01:13:08;35.30;;;33.03;;
15905;SDS011;8051;50.820;4.884;2023-10-08T01:15:41;35.17;;;32.87;;
15905;SDS011;8051;50.820;4.884;2023-10-08T01:18:11;36.00;;;33.37;;
15905;SDS011;8051;50.820;4.884;2023-10-08T01:20:44;35.63;;;33.33;;
15905;SDS011;8051;50.820;4.884;2023-10-08T01:23:19;34.70;;;32.40;;
15905;SDS011;8051;50.820;4.884;2023-10-08T01:25:48;34.70;;;32.70;;
15905;SDS011;8051;50.820;4.884;2023-10-08T01:28:18;34.93;;;32.63;;
15905;SDS011;8051;50.820;4.884;2023-10-08T01:30:51;35.20;;;33.10;;
15905;SDS011;8051;50.820;4.884;2023-10-08T01:33:20;34.93;;;32.73;;
15905;SDS011;8051;50.820;4.884;2023-10-08T01:35:49;35.13;;;32.83;;
15905;SDS011;8051;50.820;4.884;2023-10-08T01:38:16;36.57;;;33.93;;
15905;SDS011;8051;50.820;4.884;2023-10-08T01:40:48;37.03;;;34.80;;
15905;SDS011;8051;50.820;4.884;2023-10-08T01:43:17;38.00;;;35.60;;
15905;SDS011;8051;50.820;4.884;2023-10-08T01:45:46;38.73;;;36.23;;
15905;SDS011;8051;50.820;4.884;2023-10-08T01:48:17;38.53;;;36.00;;
15905;SDS011;8051;50.820;4.884;2023-10-08T01:50:53;38.13;;;35.83;;
15905;SDS011;8051;50.820;4.884;2023-10-08T01:53:28;39.07;;;36.67;;
15905;SDS011;8051;50.820;4.884;2023-10-08T01:55:56;40.37;;;37.77;;
15905;SDS011;8051;50.820;4.884;2023-10-08T01:58:24;41.13;;;38.33;;
15905;SDS011;8051;50.820;4.884;2023-10-08T02:00:53;42.37;;;39.57;;
15905;SDS011;8051;50.820;4.884;2023-10-08T02:03:24;42.83;;;40.23;;
15905;SDS011;8051;50.820;4.884;2023-10-08T02:05:53;43.00;;;40.10;;
15905;SDS011;8051;50.820;4.884;2023-10-08T02:08:24;43.20;;;40.50;;
15905;SDS011;8051;50.820;4.884;2023-10-08T02:10:54;43.37;;;40.37;;
15905;SDS011;8051;50.820;4.884;2023-10-08T02:13:21;44.20;;;41.60;;
15905;SDS011;8051;50.820;4.884;2023-10-08T02:15:50;43.57;;;40.67;;
15905;SDS011;8051;50.820;4.884;2023-10-08T02:18:18;44.03;;;41.03;;
15905;SDS011;8051;50.820;4.884;2023-10-08T02:20:46;46.10;;;43.13;;
15905;SDS011;8051;50.820;4.884;2023-10-08T02:23:14;45.13;;;42.23;;
15905;SDS011;8051;50.820;4.884;2023-10-08T02:25:43;44.27;;;41.30;;
15905;SDS011;8051;50.820;4.884;2023-10-08T02:28:12;43.87;;;40.90;;
15905;SDS011;8051;50.820;4.884;2023-10-08T02:30:41;43.07;;;40.33;;
15905;SDS011;8051;50.820;4.884;2023-10-08T02:33:08;44.07;;;41.07;;
15905;SDS011;8051;50.820;4.884;2023-10-08T02:35:41;43.67;;;40.77;;
15905;SDS011;8051;50.820;4.884;2023-10-08T02:38:09;44.50;;;41.53;;
15905;SDS011;8051;50.820;4.884;2023-10-08T02:40:38;43.50;;;40.60;;
15905;SDS011;8051;50.820;4.884;2023-10-08T02:43:11;42.87;;;39.77;;
15905;SDS011;8051;50.820;4.884;2023-10-08T02:45:40;43.43;;;40.53;;
15905;SDS011;8051;50.820;4.884;2023-10-08T02:48:12;42.87;;;40.03;;
15905;SDS011;8051;50.820;4.884;2023-10-08T02:50:40;43.70;;;40.60;;
15905;SDS011;8051;50.820;4.884;2023-10-08T02:53:10;42.50;;;39.80;;
15905;SDS011;8051;50.820;4.884;2023-10-08T02:55:38;42.30;;;38.80;;
15905;SDS011;8051;50.820;4.884;2023-10-08T02:58:09;41.90;;;39.07;;
15905;SDS011;8051;50.820;4.884;2023-10-08T03:00:41;43.30;;;40.27;;
15905;SDS011;8051;50.820;4.884;2023-10-08T03:03:09;42.47;;;39.47;;
15905;SDS011;8051;50.820;4.884;2023-10-08T03:05:41;42.97;;;40.17;;
15905;SDS011;8051;50.820;4.884;2023-10-08T03:08:11;45.57;;;42.30;;
15905;SDS011;8051;50.820;4.884;2023-10-08T03:10:44;45.57;;;42.57;;
15905;SDS011;8051;50.820;4.884;2023-10-08T03:13:13;44.43;;;41.23;;
15905;SDS011;8051;50.820;4.884;2023-10-08T03:15:43;44.43;;;41.13;;
15905;SDS011;8051;50.820;4.884;2023-10-08T03:18:23;46.63;;;43.43;;
15905;SDS011;8051;50.820;4.884;2023-10-08T03:20:51;44.90;;;41.63;;
15905;SDS011;8051;50.820;4.884;2023-10-08T03:23:18;44.50;;;41.30;;
15905;SDS011;8051;50.820;4.884;2023-10-08T03:25:59;43.13;;;39.93;;
15905;SDS011;8051;50.820;4.884;2023-10-08T03:28:36;43.53;;;40.60;;
15905;SDS011;8051;50.820;4.884;2023-10-08T03:31:08;42.67;;;39.87;;
15905;SDS011;8051;50.820;4.884;2023-10-08T03:33:42;43.37;;;39.90;;
15905;SDS011;8051;50.820;4.884;2023-10-08T03:36:14;43.47;;;40.43;;
15905;SDS011;8051;50.820;4.884;2023-10-08T03:38:47;43.53;;;40.63;;
15905;SDS011;8051;50.820;4.884;2023-10-08T03:41:18;44.03;;;41.07;;
15905;SDS011;8051;50.820;4.884;2023-10-08T03:43:53;43.27;;;40.37;;
15905;SDS011;8051;50.820;4.884;2023-10-08T03:46:28;46.20;;;43.07;;
15905;SDS011;8051;50.820;4.884;2023-10-08T03:48:56;43.87;;;40.97;;
15905;SDS011;8051;50.820;4.884;2023-10-08T03:51:30;44.80;;;41.43;;
15905;SDS011;8051;50.820;4.884;2023-10-08T03:54:04;47.40;;;44.10;;
15905;SDS011;8051;50.820;4.884;2023-10-08T03:56:47;44.93;;;41.30;;
15905;SDS011;8051;50.820;4.884;2023-10-08T03:59:16;45.27;;;41.87;;
15905;SDS011;8051;50.820;4.884;2023-10-08T04:01:57;45.27;;;42.13;;
15905;SDS011;8051;50.820;4.884;2023-10-08T04:04:35;43.47;;;40.57;;
15905;SDS011;8051;50.820;4.884;2023-10-08T04:07:16;43.17;;;40.43;;
15905;SDS011;8051;50.820;4.884;2023-10-08T04:10:24;43.83;;;40.37;;
15905;SDS011;8051;50.820;4.884;2023-10-08T04:13:26;42.73;;;39.90;;
15905;SDS011;8051;50.820;4.884;2023-10-08T04:15:56;42.23;;;39.27;;
15905;SDS011;8051;50.820;4.884;2023-10-08T04:18:24;42.33;;;39.30;;
15905;SDS011;8051;50.820;4.884;2023-10-08T04:20:52;42.67;;;39.67;;
15905;SDS011;8051;50.820;4.884;2023-10-08T04:23:38;41.97;;;39.17;;
15905;SDS011;8051;50.820;4.884;2023-10-08T04:26:06;42.30;;;39.30;;
15905;SDS011;8051;50.820;4.884;2023-10-08T04:28:34;43.40;;;40.20;;
15905;SDS011;8051;50.820;4.884;2023-10-08T04:31:03;43.77;;;40.80;;
15905;SDS011;8051;50.820;4.884;2023-10-08T04:33:43;43.03;;;40.03;;
15905;SDS011;8051;50.820;4.884;2023-10-08T04:36:12;44.67;;;41.13;;
15905;SDS011;8051;50.820;4.884;2023-10-08T04:38:43;43.47;;;40.27;;
15905;SDS011;8051;50.820;4.884;2023-10-08T04:41:13;46.03;;;42.60;;
15905;SDS011;8051;50.820;4.884;2023-10-08T04:43:44;43.47;;;40.33;;
15905;SDS011;8051;50.820;4.884;2023-10-08T04:46:14;46.50;;;43.50;;
15905;SDS011;8051;50.820;4.884;2023-10-08T04:49:06;45.00;;;41.57;;
15905;SDS011;8051;50.820;4.884;2023-10-08T04:51:44;41.80;;;39.00;;
15905;SDS011;8051;50.820;4.884;2023-10-08T04:54:14;42.43;;;39.33;;
15905;SDS011;8051;50.820;4.884;2023-10-08T04:56:43;42.67;;;39.57;;
15905;SDS011;8051;50.820;4.884;2023-10-08T04:59:14;45.50;;;42.50;;
15905;SDS011;8051;50.820;4.884;2023-10-08T05:01:46;42.57;;;39.37;;
15905;SDS011;8051;50.820;4.884;2023-10-08T05:04:23;42.97;;;39.53;;
15905;SDS011;8051;50.820;4.884;2023-10-08T05:06:52;43.50;;;39.83;;
15905;SDS011;8051;50.820;4.884;2023-10-08T05:09:37;42.13;;;39.13;;
15905;SDS011;8051;50.820;4.884;2023-10-08T05:12:17;41.57;;;38.47;;
15905;SDS011;8051;50.820;4.884;2023-10-08T05:15:00;44.57;;;41.00;;
15905;SDS011;8051;50.820;4.884;2023-10-08T05:17:45;40.10;;;37.20;;
15905;SDS011;8051;50.820;4.884;2023-10-08T05:20:35;40.43;;;37.33;;
15905;SDS011;8051;50.820;4.884;2023-10-08T05:23:19;40.13;;;36.83;;
15905;SDS011;8051;50.820;4.884;2023-10-08T05:25:58;41.33;;;38.13;;
15905;SDS011;8051;50.820;4.884;2023-10-08T05:28:34;41.60;;;38.23;;
15905;SDS011;8051;50.820;4.884;2023-10-08T05:31:12;41.60;;;38.33;;
15905;SDS011;8051;50.820;4.884;2023-10-08T05:34:01;40.57;;;37.37;;
15905;SDS011;8051;50.820;4.884;2023-10-08T05:36:44;39.17;;;36.23;;
15905;SDS011;8051;50.820;4.884;2023-10-08T05:39:31;39.27;;;36.27;;
15905;SDS011;8051;50.820;4.884;2023-10-08T05:42:07;40.50;;;37.80;;
15905;SDS011;8051;50.820;4.884;2023-10-08T05:44:42;39.93;;;36.90;;
15905;SDS011;8051;50.820;4.884;2023-10-08T05:47:32;40.33;;;37.13;;
15905;SDS011;8051;50.820;4.884;2023-10-08T05:50:06;38.80;;;35.67;;
15905;SDS011;8051;50.820;4.884;2023-10-08T05:52:52;39.20;;;36.33;;
15905;SDS011;8051;50.820;4.884;2023-10-08T05:55:30;38.50;;;35.60;;
15905;SDS011;8051;50.820;4.884;2023-10-08T05:58:02;40.73;;;37.37;;
15905;SDS011;8051;50.820;4.884;2023-10-08T06:00:49;38.50;;;35.30;;
15905;SDS011;8051;50.820;4.884;2023-10-08T06:03:34;39.50;;;36.37;;
15905;SDS011;8051;50.820;4.884;2023-10-08T06:06:11;40.80;;;37.40;;
15905;SDS011;8051;50.820;4.884;2023-10-08T06:09:05;40.40;;;37.27;;
15905;SDS011;8051;50.820;4.884;2023-10-08T06:11:48;38.63;;;35.43;;
15905;SDS011;8051;50.820;4.884;2023-10-08T06:14:38;39.87;;;36.77;;
15905;SDS011;8051;50.820;4.884;2023-10-08T06:17:32;39.30;;;35.90;;
15905;SDS011;8051;50.820;4.884;2023-10-08T06:20:00;39.83;;;36.67;;
15905;SDS011;8051;50.820;4.884;2023-10-08T06:22:35;40.60;;;36.90;;
15905;SDS011;8051;50.820;4.884;2023-10-08T06:25:05;39.10;;;35.80;;
15905;SDS011;8051;50.820;4.884;2023-10-08T06:27:43;39.60;;;36.30;;
15905;SDS011;8051;50.820;4.884;2023-10-08T06:30:11;40.40;;;37.20;;
15905;SDS011;8051;50.820;4.884;2023-10-08T06:32:42;39.00;;;35.90;;
15905;SDS011;8051;50.820;4.884;2023-10-08T06:35:13;39.83;;;36.73;;
15905;SDS011;8051;50.820;4.884;2023-10-08T06:37:43;40.73;;;37.03;;
15905;SDS011;8051;50.820;4.884;2023-10-08T06:40:16;41.53;;;37.90;;
15905;SDS011;8051;50.820;4.884;2023-10-08T06:42:57;42.60;;;39.27;;
15905;SDS011;8051;50.820;4.884;2023-10-08T06:45:29;41.07;;;37.90;;
15905;SDS011;8051;50.820;4.884;2023-10-08T06:47:58;42.13;;;39.03;;
15905;SDS011;8051;50.820;4.884;2023-10-08T06:50:31;43.50;;;40.17;;
15905;SDS011;8051;50.820;4.884;2023-10-08T06:53:00;44.33;;;40.83;;
15905;SDS011;8051;50.820;4.884;2023-10-08T06:55:34;42.23;;;38.97;;
15905;SDS011;8051;50.820;4.884;2023-10-08T06:58:02;42.07;;;38.77;;
15905;SDS011;8051;50.820;4.884;2023-10-08T07:00:34;42.33;;;39.03;;
15905;SDS011;8051;50.820;4.884;2023-10-08T07:03:06;42.93;;;39.10;;
15905;SDS011;8051;50.820;4.884;2023-10-08T07:05:36;41.33;;;38.10;;
15905;SDS011;8051;50.820;4.884;2023-10-08T07:08:09;42.20;;;38.97;;
15905;SDS011;8051;50.820;4.884;2023-10-08T07:10:40;42.33;;;38.97;;
15905;SDS011;8051;50.820;4.884;2023-10-08T07:13:08;42.33;;;39.03;;
15905;SDS011;8051;50.820;4.884;2023-10-08T07:15:35;43.53;;;40.20;;
15905;SDS011;8051;50.820;4.884;2023-10-08T07:18:10;43.40;;;40.03;;
15905;SDS011;8051;50.820;4.884;2023-10-08T07:20:40;43.63;;;40.27;;
15905;SDS011;8051;50.820;4.884;2023-10-08T07:23:18;44.40;;;40.70;;
15905;SDS011;8051;50.820;4.884;2023-10-08T07:25:54;43.77;;;40.27;;
15905;SDS011;8051;50.820;4.884;2023-10-08T07:28:24;44.00;;;40.30;;
15905;SDS011;8051;50.820;4.884;2023-10-08T07:30:52;43.43;;;39.83;;
15905;SDS011;8051;50.820;4.884;2023-10-08T07:33:20;45.23;;;41.43;;
15905;SDS011;8051;50.820;4.884;2023-10-08T07:35:50;44.83;;;41.33;;
15905;SDS011;8051;50.820;4.884;2023-10-08T07:38:23;46.00;;;42.23;;
15905;SDS011;8051;50.820;4.884;2023-10-08T07:40:57;44.00;;;40.37;;
15905;SDS011;8051;50.820;4.884;2023-10-08T07:43:26;45.47;;;41.63;;
15905;SDS011;8051;50.820;4.884;2023-10-08T07:45:57;44.87;;;41.33;;
15905;SDS011;8051;50.820;4.884;2023-10-08T07:48:25;44.37;;;40.67;;
15905;SDS011;8051;50.820;4.884;2023-10-08T07:50:55;44.57;;;40.77;;
15905;SDS011;8051;50.820;4.884;2023-10-08T07:53:23;46.57;;;42.83;;
15905;SDS011;8051;50.820;4.884;2023-10-08T07:56:04;46.10;;;42.10;;
15905;SDS011;8051;50.820;4.884;2023-10-08T07:58:36;46.50;;;42.80;;
15905;SDS011;8051;50.820;4.884;2023-10-08T08:01:04;46.43;;;42.63;;
15905;SDS011;8051;50.820;4.884;2023-10-08T08:03:32;48.47;;;44.37;;
15905;SDS011;8051;50.820;4.884;2023-10-08T08:06:02;46.10;;;42.40;;
15905;SDS011;8051;50.820;4.884;2023-10-08T08:08:32;46.90;;;43.17;;
15905;SDS011;8051;50.820;4.884;2023-10-08T08:11:01;44.53;;;40.83;;
15905;SDS011;8051;50.820;4.884;2023-10-08T08:13:34;47.03;;;43.17;;
15905;SDS011;8051;50.820;4.884;2023-10-08T08:16:01;45.43;;;42.03;;
15905;SDS011;8051;50.820;4.884;2023-10-08T08:18:42;47.83;;;43.83;;
15905;SDS011;8051;50.820;4.884;2023-10-08T08:21:09;46.87;;;43.27;;
15905;SDS011;8051;50.820;4.884;2023-10-08T08:23:40;48.83;;;45.23;;
15905;SDS011;8051;50.820;4.884;2023-10-08T08:26:13;48.57;;;44.37;;
15905;SDS011;8051;50.820;4.884;2023-10-08T08:28:53;48.40;;;44.80;;
15905;SDS011;8051;50.820;4.884;2023-10-08T08:31:22;49.80;;;45.67;;
15905;SDS011;8051;50.820;4.884;2023-10-08T08:33:51;48.73;;;45.07;;
15905;SDS011;8051;50.820;4.884;2023-10-08T08:36:22;48.07;;;44.10;;
15905;SDS011;8051;50.820;4.884;2023-10-08T08:38:50;49.10;;;44.87;;
15905;SDS011;8051;50.820;4.884;2023-10-08T08:41:18;47.73;;;43.93;;
15905;SDS011;8051;50.820;4.884;2023-10-08T08:43:49;48.07;;;44.27;;
15905;SDS011;8051;50.820;4.884;2023-10-08T08:46:26;50.33;;;45.83;;
15905;SDS011;8051;50.820;4.884;2023-10-08T08:48:57;48.10;;;44.27;;
15905;SDS011;8051;50.820;4.884;2023-10-08T08:51:29;47.27;;;43.63;;
15905;SDS011;8051;50.820;4.884;2023-10-08T08:53:57;47.03;;;43.33;;
15905;SDS011;8051;50.820;4.884;2023-10-08T08:56:26;48.13;;;44.07;;
15905;SDS011;8051;50.820;4.884;2023-10-08T08:58:55;50.03;;;46.13;;
15905;SDS011;8051;50.820;4.884;2023-10-08T09:01:28;50.87;;;46.57;;
15905;SDS011;8051;50.820;4.884;2023-10-08T09:04:01;47.43;;;43.90;;
15905;SDS011;8051;50.820;4.884;2023-10-08T09:06:30;50.70;;;46.70;;
15905;SDS011;8051;50.820;4.884;2023-10-08T09:08:59;48.37;;;44.73;;
15905;SDS011;8051;50.820;4.884;2023-10-08T09:11:39;47.67;;;43.63;;
15905;SDS011;8051;50.820;4.884;2023-10-08T09:14:08;48.27;;;44.17;;
15905;SDS011;8051;50.820;4.884;2023-10-08T09:16:38;50.50;;;45.77;;
15905;SDS011;8051;50.820;4.884;2023-10-08T09:19:06;47.00;;;43.37;;
15905;SDS011;8051;50.820;4.884;2023-10-08T09:21:37;46.60;;;43.20;;
15905;SDS011;8051;50.820;4.884;2023-10-08T09:24:05;49.07;;;44.93;;
15905;SDS011;8051;50.820;4.884;2023-10-08T09:26:36;49.90;;;46.10;;
15905;SDS011;8051;50.820;4.884;2023-10-08T09:29:05;49.07;;;45.07;;
15905;SDS011;8051;50.820;4.884;2023-10-08T09:31:38;50.23;;;45.90;;
15905;SDS011;8051;50.820;4.884;2023-10-08T09:34:06;51.07;;;46.87;;
15905;SDS011;8051;50.820;4.884;2023-10-08T09:36:33;50.60;;;46.57;;
15905;SDS011;8051;50.820;4.884;2023-10-08T09:39:02;50.40;;;46.07;;
15905;SDS011;8051;50.820;4.884;2023-10-08T09:41:32;51.10;;;46.70;;
15905;SDS011;8051;50.820;4.884;2023-10-08T09:44:01;49.77;;;45.53;;
15905;SDS011;8051;50.820;4.884;2023-10-08T09:46:31;48.73;;;44.73;;
15905;SDS011;8051;50.820;4.884;2023-10-08T09:49:01;49.23;;;45.00;;
15905;SDS011;8051;50.820;4.884;2023-10-08T09:51:33;48.00;;;44.23;;
15905;SDS011;8051;50.820;4.884;2023-10-08T09:54:09;48.73;;;44.40;;
15905;SDS011;8051;50.820;4.884;2023-10-08T09:56:39;48.30;;;44.40;;
15905;SDS011;8051;50.820;4.884;2023-10-08T09:59:08;51.67;;;47.10;;
15905;SDS011;8051;50.820;4.884;2023-10-08T10:01:36;49.97;;;45.87;;
15905;SDS011;8051;50.820;4.884;2023-10-08T10:04:10;51.10;;;46.50;;
15905;SDS011;8051;50.820;4.884;2023-10-08T10:06:38;47.93;;;44.13;;
15905;SDS011;8051;50.820;4.884;2023-10-08T10:09:08;50.30;;;46.27;;
15905;SDS011;8051;50.820;4.884;2023-10-08T10:11:47;47.07;;;43.30;;
15905;SDS011;8051;50.820;4.884;2023-10-08T10:14:15;49.27;;;45.47;;
15905;SDS011;8051;50.820;4.884;2023-10-08T10:16:44;48.70;;;44.93;;
15905;SDS011;8051;50.820;4.884;2023-10-08T10:19:20;47.30;;;43.00;;
15905;SDS011;8051;50.820;4.884;2023-10-08T10:21:48;47.40;;;43.63;;
15905;SDS011;8051;50.820;4.884;2023-10-08T10:24:22;50.00;;;45.90;;
15905;SDS011;8051;50.820;4.884;2023-10-08T10:27:08;49.47;;;45.57;;
15905;SDS011;8051;50.820;4.884;2023-10-08T10:29:37;48.33;;;44.50;;
15905;SDS011;8051;50.820;4.884;2023-10-08T10:32:05;46.10;;;42.27;;
15905;SDS011;8051;50.820;4.884;2023-10-08T10:34:37;46.33;;;42.63;;
15905;SDS011;8051;50.820;4.884;2023-10-08T10:37:05;48.13;;;44.17;;
15905;SDS011;8051;50.820;4.884;2023-10-08T10:39:49;47.20;;;43.13;;
15905;SDS011;8051;50.820;4.884;2023-10-08T10:42:18;49.13;;;45.23;;
15905;SDS011;8051;50.820;4.884;2023-10-08T10:44:51;51.40;;;47.10;;
15905;SDS011;8051;50.820;4.884;2023-10-08T10:47:20;49.37;;;45.83;;
15905;SDS011;8051;50.820;4.884;2023-10-08T10:50:09;48.63;;;45.03;;
15905;SDS011;8051;50.820;4.884;2023-10-08T10:52:51;48.03;;;44.27;;
15905;SDS011;8051;50.820;4.884;2023-10-08T10:55:19;47.90;;;44.20;;
15905;SDS011;8051;50.820;4.884;2023-10-08T10:57:47;47.93;;;43.60;;
15905;SDS011;8051;50.820;4.884;2023-10-08T11:00:21;44.70;;;40.97;;
15905;SDS011;8051;50.820;4.884;2023-10-08T11:03:12;44.23;;;41.00;;
15905;SDS011;8051;50.820;4.884;2023-10-08T11:05:45;44.37;;;41.07;;
15905;SDS011;8051;50.820;4.884;2023-10-08T11:08:16;45.70;;;41.97;;
15905;SDS011;8051;50.820;4.884;2023-10-08T11:10:46;46.20;;;42.80;;
15905;SDS011;8051;50.820;4.884;2023-10-08T11:13:17;45.30;;;41.77;;
15905;SDS011;8051;50.820;4.884;2023-10-08T11:15:46;43.93;;;40.63;;
15905;SDS011;8051;50.820;4.884;2023-10-08T11:18:17;44.47;;;41.13;;
15905;SDS011;8051;50.820;4.884;2023-10-08T11:20:48;44.43;;;40.93;;
15905;SDS011;8051;50.820;4.884;2023-10-08T11:23:32;45.03;;;41.27;;
15905;SDS011;8051;50.820;4.884;2023-10-08T11:26:02;42.80;;;39.43;;
15905;SDS011;8051;50.820;4.884;2023-10-08T11:28:30;42.77;;;39.37;;
15905;SDS011;8051;50.820;4.884;2023-10-08T11:31:00;40.90;;;37.73;;
15905;SDS011;8051;50.820;4.884;2023-10-08T11:33:36;40.70;;;37.27;;
15905;SDS011;8051;50.820;4.884;2023-10-08T11:36:06;40.00;;;36.93;;
15905;SDS011;8051;50.820;4.884;2023-10-08T11:38:44;38.97;;;36.27;;
15905;SDS011;8051;50.820;4.884;2023-10-08T11:41:16;39.97;;;36.70;;
15905;SDS011;8051;50.820;4.884;2023-10-08T11:43:53;39.60;;;36.53;;
15905;SDS011;8051;50.820;4.884;2023-10-08T11:46:22;37.13;;;34.50;;
15905;SDS011;8051;50.820;4.884;2023-10-08T11:48:58;37.63;;;34.77;;
15905;SDS011;8051;50.820;4.884;2023-10-08T11:51:31;37.93;;;35.23;;
15905;SDS011;8051;50.820;4.884;2023-10-08T11:53:59;35.27;;;32.43;;
15905;SDS011;8051;50.820;4.884;2023-10-08T11:56:28;35.87;;;32.77;;
15905;SDS011;8051;50.820;4.884;2023-10-08T11:58:55;34.97;;;32.00;;
15905;SDS011;8051;50.820;4.884;2023-10-08T12:01:23;36.00;;;33.10;;
15905;SDS011;8051;50.820;4.884;2023-10-08T12:03:52;35.03;;;32.13;;
15905;SDS011;8051;50.820;4.884;2023-10-08T12:06:24;35.57;;;32.87;;
15905;SDS011;8051;50.820;4.884;2023-10-08T12:08:56;33.97;;;31.30;;
15905;SDS011;8051;50.820;4.884;2023-10-08T12:11:24;30.00;;;27.50;;
15905;SDS011;8051;50.820;4.884;2023-10-08T12:13:56;32.03;;;29.80;;
15905;SDS011;8051;50.820;4.884;2023-10-08T12:16:25;32.93;;;30.13;;
15905;SDS011;8051;50.820;4.884;2023-10-08T12:18:55;33.73;;;31.17;;
15905;SDS011;8051;50.820;4.884;2023-10-08T12:21:25;33.13;;;30.53;;
15905;SDS011;8051;50.820;4.884;2023-10-08T12:23:56;32.13;;;29.73;;
15905;SDS011;8051;50.820;4.884;2023-10-08T12:26:24;31.50;;;29.20;;
15905;SDS011;8051;50.820;4.884;2023-10-08T12:28:51;29.47;;;27.27;;
15905;SDS011;8051;50.820;4.884;2023-10-08T12:31:20;30.83;;;28.20;;
15905;SDS011;8051;50.820;4.884;2023-10-08T12:33:49;29.70;;;27.37;;
15905;SDS011;8051;50.820;4.884;2023-10-08T12:36:19;28.70;;;26.40;;
15905;SDS011;8051;50.820;4.884;2023-10-08T12:38:48;28.17;;;26.03;;
15905;SDS011;8051;50.820;4.884;2023-10-08T12:41:24;29.63;;;27.20;;
15905;SDS011;8051;50.820;4.884;2023-10-08T12:43:52;29.53;;;26.97;;
15905;SDS011;8051;50.820;4.884;2023-10-08T12:46:20;27.13;;;25.10;;
15905;SDS011;8051;50.820;4.884;2023-10-08T12:48:51;27.20;;;23.93;;
15905;SDS011;8051;50.820;4.884;2023-10-08T12:51:19;25.33;;;23.03;;
15905;SDS011;8051;50.820;4.884;2023-10-08T12:53:50;25.13;;;23.00;;
15905;SDS011;8051;50.820;4.884;2023-10-08T12:56:25;25.90;;;24.00;;
15905;SDS011;8051;50.820;4.884;2023-10-08T12:59:01;26.30;;;23.93;;
15905;SDS011;8051;50.820;4.884;2023-10-08T13:01:32;25.83;;;23.87;;
15905;SDS011;8051;50.820;4.884;2023-10-08T13:04:01;25.23;;;23.17;;
15905;SDS011;8051;50.820;4.884;2023-10-08T13:06:32;24.00;;;22.00;;
15905;SDS011;8051;50.820;4.884;2023-10-08T13:09:02;23.27;;;21.27;;
15905;SDS011;8051;50.820;4.884;2023-10-08T13:11:39;24.53;;;22.30;;
15905;SDS011;8051;50.820;4.884;2023-10-08T13:14:08;24.00;;;21.70;;
15905;SDS011;8051;50.820;4.884;2023-10-08T13:16:36;25.27;;;23.10;;
15905;SDS011;8051;50.820;4.884;2023-10-08T13:19:05;22.87;;;21.10;;
15905;SDS011;8051;50.820;4.884;2023-10-08T13:21:34;23.50;;;21.70;;
15905;SDS011;8051;50.820;4.884;2023-10-08T13:24:02;24.53;;;22.40;;
15905;SDS011;8051;50.820;4.884;2023-10-08T13:26:34;23.13;;;21.33;;
15905;SDS011;8051;50.820;4.884;2023-10-08T13:29:04;22.07;;;20.23;;
15905;SDS011;8051;50.820;4.884;2023-10-08T13:31:34;24.47;;;22.27;;
15905;SDS011;8051;50.820;4.884;2023-10-08T13:34:02;24.67;;;22.60;;
15905;SDS011;8051;50.820;4.884;2023-10-08T13:36:33;23.27;;;20.57;;
15905;SDS011;8051;50.820;4.884;2023-10-08T13:39:03;22.80;;;21.20;;
15905;SDS011;8051;50.820;4.884;2023-10-08T13:41:34;22.33;;;19.93;;
15905;SDS011;8051;50.820;4.884;2023-10-08T13:44:05;22.70;;;20.97;;
15905;SDS011;8051;50.820;4.884;2023-10-08T13:46:32;24.13;;;22.03;;
15905;SDS011;8051;50.820;4.884;2023-10-08T13:49:02;23.73;;;21.83;;
15905;SDS011;8051;50.820;4.884;2023-10-08T13:51:31;24.20;;;22.03;;
15905;SDS011;8051;50.820;4.884;2023-10-08T13:54:00;23.30;;;21.30;;
15905;SDS011;8051;50.820;4.884;2023-10-08T13:56:31;24.90;;;22.50;;
15905;SDS011;8051;50.820;4.884;2023-10-08T13:59:03;23.33;;;21.57;;
15905;SDS011;8051;50.820;4.884;2023-10-08T14:01:38;21.97;;;20.13;;
15905;SDS011;8051;50.820;4.884;2023-10-08T14:04:09;23.50;;;21.27;;
15905;SDS011;8051;50.820;4.884;2023-10-08T14:06:36;23.90;;;21.87;;
15905;SDS011;8051;50.820;4.884;2023-10-08T14:09:07;23.37;;;21.37;;
15905;SDS011;8051;50.820;4.884;2023-10-08T14:11:37;22.90;;;21.17;;
15905;SDS011;8051;50.820;4.884;2023-10-08T14:14:06;24.23;;;22.20;;
15905;SDS011;8051;50.820;4.884;2023-10-08T14:16:36;21.70;;;19.80;;
15905;SDS011;8051;50.820;4.884;2023-10-08T14:19:07;23.97;;;22.13;;
15905;SDS011;8051;50.820;4.884;2023-10-08T14:21:37;21.50;;;19.90;;
15905;SDS011;8051;50.820;4.884;2023-10-08T14:24:14;22.40;;;20.70;;
15905;SDS011;8051;50.820;4.884;2023-10-08T14:26:42;22.73;;;21.00;;
15905;SDS011;8051;50.820;4.884;2023-10-08T14:29:18;22.57;;;20.33;;
15905;SDS011;8051;50.820;4.884;2023-10-08T14:31:46;23.37;;;21.20;;
15905;SDS011;8051;50.820;4.884;2023-10-08T14:34:15;22.03;;;20.43;;
15905;SDS011;8051;50.820;4.884;2023-10-08T14:36:54;22.83;;;21.03;;
15905;SDS011;8051;50.820;4.884;2023-10-08T14:39:44;22.93;;;20.73;;
15905;SDS011;8051;50.820;4.884;2023-10-08T14:42:31;22.83;;;20.97;;
15905;SDS011;8051;50.820;4.884;2023-10-08T14:45:18;21.83;;;20.03;;
15905;SDS011;8051;50.820;4.884;2023-10-08T14:47:47;22.60;;;20.80;;
15905;SDS011;8051;50.820;4.884;2023-10-08T14:50:15;21.10;;;19.30;;
15905;SDS011;8051;50.820;4.884;2023-10-08T14:52:43;25.27;;;19.83;;
15905;SDS011;8051;50.820;4.884;2023-10-08T14:55:12;22.77;;;20.53;;
15905;SDS011;8051;50.820;4.884;2023-10-08T14:57:39;20.90;;;19.17;;
15905;SDS011;8051;50.820;4.884;2023-10-08T15:00:08;22.33;;;20.23;;
15905;SDS011;8051;50.820;4.884;2023-10-08T15:02:38;22.30;;;20.53;;
15905;SDS011;8051;50.820;4.884;2023-10-08T15:05:06;22.27;;;20.20;;